Flight Track Log - Related Links

Times and Time Zones

All times are in EDT time to prevent confusion due to time zone crossing. See the RPA4886 flight status page for this flight to view local times or setup timezone preferences in your user account.

Time Position Orientation Groundspeed Altitude Reporting Facility
EDT Latitude Longitude Course Direction KTS MPH feet Rate Location/Type
Fri 10:05:57 PM 38.9625 -77.5297 North 189 217 2,200  Level Washington Center
Fri 10:06:58 PM 38.9992 -77.5733 317° Northwest 202 232 4,200 2,132 Climbing Washington Center
Fri 10:07:58 PM 39.0483 -77.6336 316° Northwest 217 250 6,500 2,150 Climbing Washington Center
Fri 10:08:58 PM 39.1169 -77.6356 359° North 243 280 8,500 2,118 Climbing Washington Center
Fri 10:09:57 PM 39.1903 -77.6214 North 243 280 10,700 1,240 Climbing Washington Center
Fri 10:10:59 PM 39.2700 -77.5889 18° North 267 307 11,000 148 Climbing Washington Center
Fri 10:11:00 PM 39.5556 -77.4500 North  Level FlightAware Approximate
Fri 10:11:59 PM 39.3511 -77.5939 357° North 280 322 11,000  Level Washington Center
Fri 10:12:57 PM 39.4281 -77.6039 354° North 280 322 11,000 857 Level Washington Center
Fri 10:13:58 PM 39.4994 -77.5792 15° North 269 310 12,700 1,735 Climbing Washington Center
Fri 10:15:43 PM 39.6144 -77.4736 35° Northeast 291 335 15,800 1,546 Climbing New York Center
Fri 10:16:41 PM 39.6844 -77.4506 14° North 286 329 16,900 1,068 Climbing New York Center
Fri 10:17:41 PM 39.7658 -77.4503 360° North 286 329 17,900 545 Climbing New York Center
Fri 10:18:42 PM 39.8639 -77.4489 North 296 341 18,000 50 Climbing New York Center
Fri 10:19:41 PM 39.9614 -77.4231 11° North 343 395 18,000  Level New York Center
Fri 10:20:42 PM 40.0519 -77.3692 24° Northeast 355 409 18,000  Level New York Center
Fri 10:21:42 PM 40.1425 -77.3153 24° Northeast 355 409 18,000  Level New York Center
Fri 10:22:40 PM 40.2328 -77.2667 22° Northeast 349 402 18,000  Level New York Center
Fri 10:23:41 PM 40.3208 -77.2178 23° Northeast 342 394 18,000  Level New York Center
Fri 10:24:40 PM 40.3919 -77.1781 23° Northeast 342 394 18,000  Level New York Center
Fri 10:25:42 PM 40.4994 -77.1142 24° Northeast 342 394 18,000 393 Level New York Center
Fri 10:26:42 PM 40.5856 -77.0647 24° Northeast 342 394 18,800 500 Climbing New York Center
Fri 10:27:42 PM 40.6628 -77.0225 23° Northeast 342 394 19,000 99 Climbing New York Center
Fri 10:28:43 PM 40.7617 -76.9658 23° Northeast 342 394 19,000  Level New York Center
Fri 10:29:43 PM 40.8542 -76.9111 24° Northeast 350 403 19,000  Level New York Center
Fri 10:30:41 PM 40.9467 -76.8564 24° Northeast 355 409 19,000  Level New York Center
Fri 10:31:42 PM 41.0433 -76.8017 23° Northeast 360 414 19,000  Level New York Center
Fri 10:32:42 PM 41.1400 -76.7442 24° Northeast 366 421 19,000  Level New York Center
Fri 10:33:41 PM 41.2364 -76.6892 23° Northeast 366 421 19,000  Level New York Center
Fri 10:34:41 PM 41.3225 -76.6331 26° Northeast 372 428 19,000  Level New York Center
Fri 10:35:43 PM 41.4297 -76.5733 23° Northeast 372 428 19,000  Level New York Center
Fri 10:36:43 PM 41.5261 -76.5150 24° Northeast 372 428 19,000  Level New York Center
Fri 10:37:42 PM 41.6228 -76.4569 24° Northeast 372 428 19,000  Level New York Center
Fri 10:38:43 PM 41.7169 -76.4036 23° Northeast 372 428 19,000  Level New York Center
Fri 10:39:43 PM 41.8047 -76.3500 24° Northeast 372 428 19,000  Level New York Center
Fri 10:40:41 PM 41.9097 -76.2864 24° Northeast 372 428 19,000  Level New York Center
Fri 10:42:15 PM 42.0311 -76.2139 24° Northeast 378 435 19,000  Level Boston Center
Fri 10:43:15 PM 42.1375 -76.1503 24° Northeast 357 411 19,000  Level Boston Center
Fri 10:44:15 PM 42.1931 -76.0469 54° Northeast 337 388 19,000  Level Boston Center
Fri 10:45:15 PM 42.2300 -75.9286 67° East 325 374 19,000  Level Boston Center
Fri 10:46:15 PM 42.2733 -75.8103 64° Northeast 330 380 19,000  Level Boston Center
Fri 10:47:15 PM 42.3022 -75.6769 74° East 330 380 19,000  Level Boston Center
Fri 10:48:27 PM 42.3325 -75.5550 71° East 330 380 19,000  Level Boston Center
Fri 10:49:27 PM 42.3697 -75.4106 71° East 335 386 19,000 -200 Level Boston Center
Fri 10:50:27 PM 42.3981 -75.2853 73° East 340 391 18,600 -800 Descending Boston Center
Fri 10:51:27 PM 42.4283 -75.1575 72° East 340 391 17,400 -1,150 Descending Boston Center
Fri 10:52:27 PM 42.4628 -75.0208 71° East 354 407 16,300 -1,050 Descending Boston Center
Fri 10:53:27 PM 42.4858 -74.9206 73° East 360 414 15,300 -1,200 Descending Boston Center
Fri 10:54:27 PM 42.5181 -74.7808 73° East 338 389 13,900 -1,250 Descending Boston Center
Fri 10:55:27 PM 42.5431 -74.6775 72° East 315 362 12,800 -1,169 Descending Boston Center
Fri 10:55:44 PM 42.5542 -74.6358 70° East 318 366 12,400 -1,300 Descending Boston Center
Fri 10:56:27 PM 42.5725 -74.5489 74° East 320 368 11,500 -1,300 Descending Boston Center
Fri 10:56:44 PM 42.5836 -74.5183 64° Northeast 323 372 11,100 -1,200 Descending Boston Center
Fri 10:57:27 PM 42.6033 -74.4597 65° Northeast 307 353 10,300 -1,377 Descending Boston Center
Fri 10:57:45 PM 42.6206 -74.4236 57° Northeast 287 330 9,700 -1,600 Descending Boston Center
Fri 10:58:27 PM 42.6508 -74.3597 57° Northeast 279 321 8,700 -1,475 Descending Boston Center
Fri 10:58:46 PM 42.6639 -74.3347 55° Northeast 282 325 8,200 -1,500 Descending Boston Center
Fri 10:59:27 PM 42.6900 -74.2733 60° Northeast 279 321 7,200 -1,700 Descending Boston Center
Fri 10:59:46 PM 42.7050 -74.2428 56° Northeast 289 333 6,500 -2,100 Descending Boston Center
Fri 11:00:27 PM 42.7353 -74.1756 58° Northeast 279 321 5,100 -2,066 Descending Boston Center
Fri 11:00:47 PM 42.7481 -74.1506 55° Northeast 283 326 4,400 -1,500 Descending Boston Center
Fri 11:01:27 PM 42.7758 -74.0978 54° Northeast 279 321 3,600 -1,279 Descending Boston Center
Fri 11:01:48 PM 42.7953 -74.0669 49° Northeast 276 318 3,100 -600 Descending Boston Center
Fri 11:02:27 PM 42.8231 -74.0197 51° Northeast 259 298 3,000 -83 Descending Boston Center
Fri 11:03:00 PM 42.8422 -73.9778 58° Northeast 228 262 3,000  Level Boston Center
Fri 11:03:27 PM 42.8489 -73.9411 76° East 231 266 3,000 -590 Level Boston Center
Fri 11:04:01 PM 42.8517 -73.9014 85° East 194 223 2,400 -500 Descending Boston Center
Fri 11:04:27 PM 42.8622 -73.8792 57° Northeast 204 235 2,500 -787 Climbing Boston Center
Fri 11:05:02 PM 42.8503 -73.8333 110° East 167 192 1,600 -632 Descending Boston Center
Fri 11:06:02 PM 42.8214 -73.8131 153° Southeast 99 114 1,500 -347 Descending Boston Center
Fri 11:07:03 PM 42.7881 -73.8094 175° South 99 114 900 -590 Descending Boston Center

Login

Don't have an account? Register now (free) for customized features, flight alerts, and more!